< < Back
Terminal Aerodrome Forecast


Current Version              Previous Versions:   1  2  3  4  5  6  7  8  9  

Terminal Aerodrome Forecast

705
FTUS44 KOHX 051725
TAFBNA
TAF
KBNA 051725Z 0518/0618 VRB03KT P6SM BKN250=

Latest METAR

254
SAUS70 KWBC 061100 RRB
MTRBNA
METAR KBNA 061053Z 00000KT 10SM SCT250 M02/M06 A3037 RMK AO2 SLP288
T10171056


USA.gov is the U.S. government's official web portal to all federal, state and local government web resources and services.